sensor_id;sensor_type;location;lat;lon;timestamp;temperature;humidity
21672;DHT22;10997;52.242;8.168;2023-03-23T00:03:08;10.60;99.90
21672;DHT22;10997;52.242;8.168;2023-03-23T00:08:08;10.60;99.90
21672;DHT22;10997;52.242;8.168;2023-03-23T00:13:12;10.60;99.90
21672;DHT22;10997;52.242;8.168;2023-03-23T00:18:13;10.60;99.90
21672;DHT22;10997;52.242;8.168;2023-03-23T00:23:24;10.60;99.90
21672;DHT22;10997;52.242;8.168;2023-03-23T00:28:26;10.60;99.90
21672;DHT22;10997;52.242;8.168;2023-03-23T00:33:30;10.60;99.90
21672;DHT22;10997;52.242;8.168;2023-03-23T00:38:34;10.60;99.90
21672;DHT22;10997;52.242;8.168;2023-03-23T00:43:35;10.60;99.90
21672;DHT22;10997;52.242;8.168;2023-03-23T00:48:37;10.60;99.90
21672;DHT22;10997;52.242;8.168;2023-03-23T00:53:45;10.60;99.90
21672;DHT22;10997;52.242;8.168;2023-03-23T00:58:46;10.60;99.90
21672;DHT22;10997;52.242;8.168;2023-03-23T01:03:47;10.60;99.90
21672;DHT22;10997;52.242;8.168;2023-03-23T01:08:47;10.60;99.90
21672;DHT22;10997;52.242;8.168;2023-03-23T01:13:49;10.60;99.90
21672;DHT22;10997;52.242;8.168;2023-03-23T01:18:49;10.60;99.90
21672;DHT22;10997;52.242;8.168;2023-03-23T01:23:50;10.60;99.90
21672;DHT22;10997;52.242;8.168;2023-03-23T01:28:52;10.70;99.90
21672;DHT22;10997;52.242;8.168;2023-03-23T01:33:53;10.60;99.90
21672;DHT22;10997;52.242;8.168;2023-03-23T01:38:55;10.60;99.90
21672;DHT22;10997;52.242;8.168;2023-03-23T01:44:07;10.60;99.90
21672;DHT22;10997;52.242;8.168;2023-03-23T01:49:11;10.60;99.90
21672;DHT22;10997;52.242;8.168;2023-03-23T01:54:14;10.60;99.90
21672;DHT22;10997;52.242;8.168;2023-03-23T01:59:20;10.60;99.90
21672;DHT22;10997;52.242;8.168;2023-03-23T02:04:22;10.60;99.90
21672;DHT22;10997;52.242;8.168;2023-03-23T02:09:27;10.60;99.90
21672;DHT22;10997;52.242;8.168;2023-03-23T02:14:28;10.60;99.90
21672;DHT22;10997;52.242;8.168;2023-03-23T02:30:59;10.70;99.90
21672;DHT22;10997;52.242;8.168;2023-03-23T02:36:30;10.70;99.90
21672;DHT22;10997;52.242;8.168;2023-03-23T02:41:42;10.70;99.90
21672;DHT22;10997;52.242;8.168;2023-03-23T02:46:44;10.70;99.90
21672;DHT22;10997;52.242;8.168;2023-03-23T02:51:46;10.70;99.90
21672;DHT22;10997;52.242;8.168;2023-03-23T02:56:47;10.80;99.90
21672;DHT22;10997;52.242;8.168;2023-03-23T03:07:23;10.80;99.90
21672;DHT22;10997;52.242;8.168;2023-03-23T03:17:44;10.90;99.90
21672;DHT22;10997;52.242;8.168;2023-03-23T03:22:48;10.80;99.90
21672;DHT22;10997;52.242;8.168;2023-03-23T03:27:49;10.80;99.90
21672;DHT22;10997;52.242;8.168;2023-03-23T03:32:53;10.80;99.90
21672;DHT22;10997;52.242;8.168;2023-03-23T03:37:54;10.80;99.90
21672;DHT22;10997;52.242;8.168;2023-03-23T03:42:56;10.70;99.90
21672;DHT22;10997;52.242;8.168;2023-03-23T03:47:57;10.80;99.90
21672;DHT22;10997;52.242;8.168;2023-03-23T03:52:57;10.80;99.90
21672;DHT22;10997;52.242;8.168;2023-03-23T03:57:58;10.80;99.90
21672;DHT22;10997;52.242;8.168;2023-03-23T04:02:59;10.80;99.90
21672;DHT22;10997;52.242;8.168;2023-03-23T04:08:00;10.80;99.90
21672;DHT22;10997;52.242;8.168;2023-03-23T04:13:02;10.80;99.90
21672;DHT22;10997;52.242;8.168;2023-03-23T04:18:04;10.90;99.90
21672;DHT22;10997;52.242;8.168;2023-03-23T04:23:05;10.90;99.90
21672;DHT22;10997;52.242;8.168;2023-03-23T04:28:06;11.00;99.90
21672;DHT22;10997;52.242;8.168;2023-03-23T04:33:07;11.00;99.90
21672;DHT22;10997;52.242;8.168;2023-03-23T04:38:08;11.00;99.90
21672;DHT22;10997;52.242;8.168;2023-03-23T04:43:09;11.00;99.90
21672;DHT22;10997;52.242;8.168;2023-03-23T04:48:14;11.10;99.90
21672;DHT22;10997;52.242;8.168;2023-03-23T04:53:14;11.10;99.90
21672;DHT22;10997;52.242;8.168;2023-03-23T04:58:17;11.10;99.90
21672;DHT22;10997;52.242;8.168;2023-03-23T05:03:19;11.10;99.90
21672;DHT22;10997;52.242;8.168;2023-03-23T05:08:20;11.10;99.90
21672;DHT22;10997;52.242;8.168;2023-03-23T05:13:21;11.00;99.90
21672;DHT22;10997;52.242;8.168;2023-03-23T05:18:22;11.10;99.90
21672;DHT22;10997;52.242;8.168;2023-03-23T05:23:23;11.10;99.90
21672;DHT22;10997;52.242;8.168;2023-03-23T05:28:27;11.10;99.90
21672;DHT22;10997;52.242;8.168;2023-03-23T05:33:29;11.10;99.90
21672;DHT22;10997;52.242;8.168;2023-03-23T05:38:29;11.10;99.90
21672;DHT22;10997;52.242;8.168;2023-03-23T05:43:32;11.10;99.90
21672;DHT22;10997;52.242;8.168;2023-03-23T05:48:33;11.20;99.90
21672;DHT22;10997;52.242;8.168;2023-03-23T05:53:33;11.20;99.90
21672;DHT22;10997;52.242;8.168;2023-03-23T05:58:35;11.20;99.90
21672;DHT22;10997;52.242;8.168;2023-03-23T06:03:36;11.20;99.90
21672;DHT22;10997;52.242;8.168;2023-03-23T06:08:37;11.30;99.90
21672;DHT22;10997;52.242;8.168;2023-03-23T06:13:38;11.30;99.90
21672;DHT22;10997;52.242;8.168;2023-03-23T06:18:38;11.30;99.90
21672;DHT22;10997;52.242;8.168;2023-03-23T06:23:40;11.30;99.90
21672;DHT22;10997;52.242;8.168;2023-03-23T06:28:41;11.40;99.90
21672;DHT22;10997;52.242;8.168;2023-03-23T06:33:41;11.50;99.90
21672;DHT22;10997;52.242;8.168;2023-03-23T06:38:42;11.60;99.90
21672;DHT22;10997;52.242;8.168;2023-03-23T06:43:43;11.60;99.90
21672;DHT22;10997;52.242;8.168;2023-03-23T06:48:44;11.60;99.90
21672;DHT22;10997;52.242;8.168;2023-03-23T06:53:44;11.70;99.90
21672;DHT22;10997;52.242;8.168;2023-03-23T06:58:45;11.70;99.90
21672;DHT22;10997;52.242;8.168;2023-03-23T07:03:46;11.70;99.90
21672;DHT22;10997;52.242;8.168;2023-03-23T07:08:46;11.90;99.90
21672;DHT22;10997;52.242;8.168;2023-03-23T07:13:47;12.00;99.90
21672;DHT22;10997;52.242;8.168;2023-03-23T07:18:50;12.10;99.90
21672;DHT22;10997;52.242;8.168;2023-03-23T07:23:50;12.20;99.90
21672;DHT22;10997;52.242;8.168;2023-03-23T07:28:52;12.30;99.90
21672;DHT22;10997;52.242;8.168;2023-03-23T07:33:52;12.40;99.90
21672;DHT22;10997;52.242;8.168;2023-03-23T07:38:53;12.50;99.90
21672;DHT22;10997;52.242;8.168;2023-03-23T07:43:54;12.60;99.90
21672;DHT22;10997;52.242;8.168;2023-03-23T07:48:55;12.70;99.90
21672;DHT22;10997;52.242;8.168;2023-03-23T07:53:56;12.90;99.90
21672;DHT22;10997;52.242;8.168;2023-03-23T07:58:57;12.90;99.90
21672;DHT22;10997;52.242;8.168;2023-03-23T08:03:58;12.90;99.90
21672;DHT22;10997;52.242;8.168;2023-03-23T08:08:59;13.00;99.90
21672;DHT22;10997;52.242;8.168;2023-03-23T08:14:00;12.90;99.90
21672;DHT22;10997;52.242;8.168;2023-03-23T08:19:01;12.80;99.90
21672;DHT22;10997;52.242;8.168;2023-03-23T08:24:03;12.80;99.90
21672;DHT22;10997;52.242;8.168;2023-03-23T08:29:05;12.70;99.90
21672;DHT22;10997;52.242;8.168;2023-03-23T08:34:07;12.70;99.90
21672;DHT22;10997;52.242;8.168;2023-03-23T08:39:08;12.70;99.90
21672;DHT22;10997;52.242;8.168;2023-03-23T08:44:08;12.60;99.90
21672;DHT22;10997;52.242;8.168;2023-03-23T08:49:09;12.60;99.90
21672;DHT22;10997;52.242;8.168;2023-03-23T08:54:10;12.60;99.90
21672;DHT22;10997;52.242;8.168;2023-03-23T08:59:10;12.60;99.90
21672;DHT22;10997;52.242;8.168;2023-03-23T09:04:11;12.90;99.90
21672;DHT22;10997;52.242;8.168;2023-03-23T09:09:13;13.00;99.90
21672;DHT22;10997;52.242;8.168;2023-03-23T09:14:14;13.00;99.90
21672;DHT22;10997;52.242;8.168;2023-03-23T09:19:14;13.00;99.90
21672;DHT22;10997;52.242;8.168;2023-03-23T09:24:15;12.90;99.90
21672;DHT22;10997;52.242;8.168;2023-03-23T09:29:16;13.00;99.90
21672;DHT22;10997;52.242;8.168;2023-03-23T09:34:18;12.90;99.90
21672;DHT22;10997;52.242;8.168;2023-03-23T09:39:19;13.00;99.90
21672;DHT22;10997;52.242;8.168;2023-03-23T09:49:55;12.90;99.90
21672;DHT22;10997;52.242;8.168;2023-03-23T09:54:57;12.30;99.90
21672;DHT22;10997;52.242;8.168;2023-03-23T10:00:14;12.00;99.90
21672;DHT22;10997;52.242;8.168;2023-03-23T10:05:51;11.30;99.90
21672;DHT22;10997;52.242;8.168;2023-03-23T10:16:09;11.00;99.90
21672;DHT22;10997;52.242;8.168;2023-03-23T10:21:15;11.10;99.90
21672;DHT22;10997;52.242;8.168;2023-03-23T10:31:48;10.90;99.90
21672;DHT22;10997;52.242;8.168;2023-03-23T10:42:22;10.60;99.90
21672;DHT22;10997;52.242;8.168;2023-03-23T10:47:24;10.80;99.90
21672;DHT22;10997;52.242;8.168;2023-03-23T10:57:35;10.90;99.90
21672;DHT22;10997;52.242;8.168;2023-03-23T11:02:41;11.00;99.90
21672;DHT22;10997;52.242;8.168;2023-03-23T11:07:49;11.10;99.90
21672;DHT22;10997;52.242;8.168;2023-03-23T11:12:50;11.30;99.90
21672;DHT22;10997;52.242;8.168;2023-03-23T11:18:02;11.30;99.90
21672;DHT22;10997;52.242;8.168;2023-03-23T11:23:15;11.00;99.90
21672;DHT22;10997;52.242;8.168;2023-03-23T11:28:17;11.10;99.90
21672;DHT22;10997;52.242;8.168;2023-03-23T11:33:18;11.00;99.90
21672;DHT22;10997;52.242;8.168;2023-03-23T11:38:21;11.10;99.90
21672;DHT22;10997;52.242;8.168;2023-03-23T11:43:25;11.10;99.90
21672;DHT22;10997;52.242;8.168;2023-03-23T11:48:38;11.10;99.90
21672;DHT22;10997;52.242;8.168;2023-03-23T11:53:50;11.10;99.90
21672;DHT22;10997;52.242;8.168;2023-03-23T11:58:56;11.10;99.90
21672;DHT22;10997;52.242;8.168;2023-03-23T12:04:04;11.20;99.90
21672;DHT22;10997;52.242;8.168;2023-03-23T12:09:34;11.10;99.90
21672;DHT22;10997;52.242;8.168;2023-03-23T12:15:13;11.30;99.90
21672;DHT22;10997;52.242;8.168;2023-03-23T12:41:49;13.00;99.90
21672;DHT22;10997;52.242;8.168;2023-03-23T12:47:07;13.10;99.90
21672;DHT22;10997;52.242;8.168;2023-03-23T12:52:19;13.30;99.90
21672;DHT22;10997;52.242;8.168;2023-03-23T12:57:35;13.50;99.90
21672;DHT22;10997;52.242;8.168;2023-03-23T13:13:04;14.20;99.90
21672;DHT22;10997;52.242;8.168;2023-03-23T13:24:10;14.00;99.90
21672;DHT22;10997;52.242;8.168;2023-03-23T13:29:00;13.90;99.90
21672;DHT22;10997;52.242;8.168;2023-03-23T13:34:10;14.10;99.90
21672;DHT22;10997;52.242;8.168;2023-03-23T13:39:25;14.40;99.90
21672;DHT22;10997;52.242;8.168;2023-03-23T13:44:40;14.50;99.90
21672;DHT22;10997;52.242;8.168;2023-03-23T14:06:01;15.10;99.90
21672;DHT22;10997;52.242;8.168;2023-03-23T14:11:17;15.20;99.90
21672;DHT22;10997;52.242;8.168;2023-03-23T14:16:24;15.10;99.90
21672;DHT22;10997;52.242;8.168;2023-03-23T14:21:40;15.30;99.90
21672;DHT22;10997;52.242;8.168;2023-03-23T14:26:41;15.20;99.90
21672;DHT22;10997;52.242;8.168;2023-03-23T14:31:42;15.20;99.90
21672;DHT22;10997;52.242;8.168;2023-03-23T14:36:44;14.70;99.90
21672;DHT22;10997;52.242;8.168;2023-03-23T14:41:45;14.50;99.90
21672;DHT22;10997;52.242;8.168;2023-03-23T14:46:46;14.80;99.90
21672;DHT22;10997;52.242;8.168;2023-03-23T14:51:49;14.70;99.90
21672;DHT22;10997;52.242;8.168;2023-03-23T14:56:52;14.60;99.90
21672;DHT22;10997;52.242;8.168;2023-03-23T15:01:53;14.70;99.90
21672;DHT22;10997;52.242;8.168;2023-03-23T15:07:00;14.70;99.90
21672;DHT22;10997;52.242;8.168;2023-03-23T15:12:03;14.40;99.90
21672;DHT22;10997;52.242;8.168;2023-03-23T15:17:04;14.20;99.90
21672;DHT22;10997;52.242;8.168;2023-03-23T15:22:20;14.40;99.90
21672;DHT22;10997;52.242;8.168;2023-03-23T15:27:29;14.30;99.90
21672;DHT22;10997;52.242;8.168;2023-03-23T15:32:37;14.40;99.90
21672;DHT22;10997;52.242;8.168;2023-03-23T15:37:43;14.30;99.90
21672;DHT22;10997;52.242;8.168;2023-03-23T15:42:44;14.20;99.90
21672;DHT22;10997;52.242;8.168;2023-03-23T15:47:48;14.20;99.90
21672;DHT22;10997;52.242;8.168;2023-03-23T15:52:50;14.10;99.90
21672;DHT22;10997;52.242;8.168;2023-03-23T15:57:53;14.00;99.90
21672;DHT22;10997;52.242;8.168;2023-03-23T16:02:58;13.90;99.90
21672;DHT22;10997;52.242;8.168;2023-03-23T16:08:00;13.60;99.90
21672;DHT22;10997;52.242;8.168;2023-03-23T16:13:00;13.60;99.90
21672;DHT22;10997;52.242;8.168;2023-03-23T16:18:01;13.60;99.90
21672;DHT22;10997;52.242;8.168;2023-03-23T16:23:02;13.60;99.90
21672;DHT22;10997;52.242;8.168;2023-03-23T16:28:02;13.50;99.90
21672;DHT22;10997;52.242;8.168;2023-03-23T16:33:03;13.60;99.90
21672;DHT22;10997;52.242;8.168;2023-03-23T16:38:04;13.60;99.90
21672;DHT22;10997;52.242;8.168;2023-03-23T16:43:05;13.50;99.90
21672;DHT22;10997;52.242;8.168;2023-03-23T16:48:07;13.40;99.90
21672;DHT22;10997;52.242;8.168;2023-03-23T16:53:08;13.30;99.90
21672;DHT22;10997;52.242;8.168;2023-03-23T16:58:09;13.30;99.90
21672;DHT22;10997;52.242;8.168;2023-03-23T17:03:09;13.20;99.90
21672;DHT22;10997;52.242;8.168;2023-03-23T17:08:10;13.20;99.90
21672;DHT22;10997;52.242;8.168;2023-03-23T17:13:11;13.10;99.90
21672;DHT22;10997;52.242;8.168;2023-03-23T17:18:12;13.00;99.90
21672;DHT22;10997;52.242;8.168;2023-03-23T17:23:13;12.90;99.90
21672;DHT22;10997;52.242;8.168;2023-03-23T17:28:14;12.90;99.90
21672;DHT22;10997;52.242;8.168;2023-03-23T17:33:15;12.80;99.90
21672;DHT22;10997;52.242;8.168;2023-03-23T17:38:16;12.70;99.90
21672;DHT22;10997;52.242;8.168;2023-03-23T17:43:18;12.70;99.90
21672;DHT22;10997;52.242;8.168;2023-03-23T17:48:19;12.70;99.90
21672;DHT22;10997;52.242;8.168;2023-03-23T17:53:19;12.60;99.90
21672;DHT22;10997;52.242;8.168;2023-03-23T17:58:21;12.50;99.90
21672;DHT22;10997;52.242;8.168;2023-03-23T18:03:23;12.40;99.90
21672;DHT22;10997;52.242;8.168;2023-03-23T18:08:23;12.30;99.90
21672;DHT22;10997;52.242;8.168;2023-03-23T18:13:27;12.20;99.90
21672;DHT22;10997;52.242;8.168;2023-03-23T18:18:28;12.20;99.90
21672;DHT22;10997;52.242;8.168;2023-03-23T18:23:30;12.10;99.90
21672;DHT22;10997;52.242;8.168;2023-03-23T18:28:34;12.10;99.90
21672;DHT22;10997;52.242;8.168;2023-03-23T18:33:37;12.00;99.90
21672;DHT22;10997;52.242;8.168;2023-03-23T18:38:37;11.90;99.90
21672;DHT22;10997;52.242;8.168;2023-03-23T18:43:38;11.90;99.90
21672;DHT22;10997;52.242;8.168;2023-03-23T18:48:39;11.80;99.90
21672;DHT22;10997;52.242;8.168;2023-03-23T18:53:40;11.70;99.90
21672;DHT22;10997;52.242;8.168;2023-03-23T18:58:41;11.80;99.90
21672;DHT22;10997;52.242;8.168;2023-03-23T19:03:42;11.70;99.90
21672;DHT22;10997;52.242;8.168;2023-03-23T19:08:42;11.70;99.90
21672;DHT22;10997;52.242;8.168;2023-03-23T19:13:43;11.70;99.90
21672;DHT22;10997;52.242;8.168;2023-03-23T19:18:44;11.70;99.90
21672;DHT22;10997;52.242;8.168;2023-03-23T19:23:45;11.70;99.90
21672;DHT22;10997;52.242;8.168;2023-03-23T19:28:45;11.70;99.90
21672;DHT22;10997;52.242;8.168;2023-03-23T19:33:47;11.70;99.90
21672;DHT22;10997;52.242;8.168;2023-03-23T19:38:48;11.60;99.90
21672;DHT22;10997;52.242;8.168;2023-03-23T19:43:50;11.60;99.90
21672;DHT22;10997;52.242;8.168;2023-03-23T19:48:51;11.70;99.90
21672;DHT22;10997;52.242;8.168;2023-03-23T19:53:51;11.70;99.90
21672;DHT22;10997;52.242;8.168;2023-03-23T19:58:52;11.80;99.90
21672;DHT22;10997;52.242;8.168;2023-03-23T20:03:53;11.70;99.90
21672;DHT22;10997;52.242;8.168;2023-03-23T20:08:53;11.70;99.90
21672;DHT22;10997;52.242;8.168;2023-03-23T20:13:54;11.70;99.90
21672;DHT22;10997;52.242;8.168;2023-03-23T20:18:55;11.70;99.90
21672;DHT22;10997;52.242;8.168;2023-03-23T20:23:57;11.60;99.90
21672;DHT22;10997;52.242;8.168;2023-03-23T20:28:58;11.60;99.90
21672;DHT22;10997;52.242;8.168;2023-03-23T20:34:03;11.60;99.90
21672;DHT22;10997;52.242;8.168;2023-03-23T20:39:07;11.50;99.90
21672;DHT22;10997;52.242;8.168;2023-03-23T20:44:11;11.50;99.90
21672;DHT22;10997;52.242;8.168;2023-03-23T20:49:16;11.40;99.90
21672;DHT22;10997;52.242;8.168;2023-03-23T20:54:18;11.50;99.90
21672;DHT22;10997;52.242;8.168;2023-03-23T20:59:19;11.40;99.90
21672;DHT22;10997;52.242;8.168;2023-03-23T21:04:22;11.40;99.90
21672;DHT22;10997;52.242;8.168;2023-03-23T21:09:26;11.40;99.90
21672;DHT22;10997;52.242;8.168;2023-03-23T21:14:26;11.40;99.90
21672;DHT22;10997;52.242;8.168;2023-03-23T21:19:28;11.40;99.90
21672;DHT22;10997;52.242;8.168;2023-03-23T21:24:30;11.40;99.90
21672;DHT22;10997;52.242;8.168;2023-03-23T21:29:31;11.40;99.90
21672;DHT22;10997;52.242;8.168;2023-03-23T21:34:32;11.30;99.90
21672;DHT22;10997;52.242;8.168;2023-03-23T21:39:32;11.30;99.90
21672;DHT22;10997;52.242;8.168;2023-03-23T21:44:34;11.30;99.90
21672;DHT22;10997;52.242;8.168;2023-03-23T21:49:35;11.40;99.90
21672;DHT22;10997;52.242;8.168;2023-03-23T21:54:35;11.40;99.90
21672;DHT22;10997;52.242;8.168;2023-03-23T21:59:36;11.40;99.90
21672;DHT22;10997;52.242;8.168;2023-03-23T22:04:37;11.40;99.90
21672;DHT22;10997;52.242;8.168;2023-03-23T22:09:38;11.40;99.90
21672;DHT22;10997;52.242;8.168;2023-03-23T22:14:44;11.40;99.90
21672;DHT22;10997;52.242;8.168;2023-03-23T22:19:45;11.40;99.90
21672;DHT22;10997;52.242;8.168;2023-03-23T22:24:47;11.40;99.90
21672;DHT22;10997;52.242;8.168;2023-03-23T22:29:48;11.40;99.90
21672;DHT22;10997;52.242;8.168;2023-03-23T22:34:48;11.40;99.90
21672;DHT22;10997;52.242;8.168;2023-03-23T22:39:51;11.40;99.90
21672;DHT22;10997;52.242;8.168;2023-03-23T22:44:51;11.40;99.90
21672;DHT22;10997;52.242;8.168;2023-03-23T22:49:52;11.40;99.90
21672;DHT22;10997;52.242;8.168;2023-03-23T22:54:53;11.40;99.90
21672;DHT22;10997;52.242;8.168;2023-03-23T22:59:53;11.40;99.90
21672;DHT22;10997;52.242;8.168;2023-03-23T23:04:54;11.40;99.90
21672;DHT22;10997;52.242;8.168;2023-03-23T23:09:56;11.40;99.90
21672;DHT22;10997;52.242;8.168;2023-03-23T23:14:57;11.40;99.90
21672;DHT22;10997;52.242;8.168;2023-03-23T23:19:59;11.30;99.90
21672;DHT22;10997;52.242;8.168;2023-03-23T23:24:59;11.30;99.90
21672;DHT22;10997;52.242;8.168;2023-03-23T23:30:00;11.30;99.90
21672;DHT22;10997;52.242;8.168;2023-03-23T23:35:02;11.20;99.90
21672;DHT22;10997;52.242;8.168;2023-03-23T23:40:03;11.10;99.90
21672;DHT22;10997;52.242;8.168;2023-03-23T23:45:08;11.10;99.90
21672;DHT22;10997;52.242;8.168;2023-03-23T23:50:10;11.10;99.90
21672;DHT22;10997;52.242;8.168;2023-03-23T23:55:13;11.00;99.90
